createdAt,value
2018-04-14T00:02:43.097Z,58.63
2018-04-14T00:05:52.583Z,56.23
2018-04-14T00:09:02.771Z,56.50
2018-04-14T00:12:12.687Z,56.90
2018-04-14T00:15:22.553Z,59.60
2018-04-14T00:18:32.375Z,57.00
2018-04-14T00:21:41.877Z,58.17
2018-04-14T00:24:52.053Z,56.80
2018-04-14T00:28:02.320Z,58.70
2018-04-14T00:31:12.410Z,56.80
2018-04-14T00:34:22.639Z,57.60
2018-04-14T00:37:32.605Z,57.20
2018-04-14T00:40:41.891Z,57.03
2018-04-14T00:43:51.807Z,56.37
2018-04-14T00:47:01.692Z,57.93
2018-04-14T00:50:11.276Z,57.10
2018-04-14T00:53:39.273Z,58.33
2018-04-14T00:56:48.815Z,56.90
2018-04-14T00:59:58.447Z,56.33
2018-04-14T01:03:07.871Z,56.13
2018-04-14T01:06:18.199Z,57.73
2018-04-14T01:09:28.667Z,58.83
2018-04-14T01:12:38.066Z,58.10
2018-04-14T01:15:47.907Z,57.23
2018-04-14T01:18:58.148Z,57.13
2018-04-14T01:22:07.604Z,57.17
2018-04-14T01:25:20.864Z,56.73
2018-04-14T01:28:30.224Z,54.87
2018-04-14T01:31:39.619Z,52.67
2018-04-14T01:34:49.477Z,52.77
2018-04-14T01:37:58.919Z,53.70
2018-04-14T01:41:08.768Z,52.90
2018-04-14T01:44:19.001Z,49.13
2018-04-14T01:47:28.439Z,53.63
2018-04-14T01:50:39.228Z,51.40
2018-04-14T01:53:48.988Z,48.73
2018-04-14T01:56:58.453Z,49.50
2018-04-14T02:00:08.571Z,50.97
2018-04-14T02:03:18.225Z,48.23
2018-04-14T02:06:28.155Z,47.37
2018-04-14T02:09:38.471Z,46.43
2018-04-14T02:12:48.303Z,47.37
2018-04-14T02:15:57.704Z,46.27
2018-04-14T02:19:07.149Z,44.83
2018-04-14T02:22:16.648Z,42.53
2018-04-14T02:25:26.015Z,43.17
2018-04-14T02:28:35.456Z,44.63
2018-04-14T02:31:45.779Z,42.60
2018-04-14T02:34:55.315Z,42.07
2018-04-14T02:38:04.648Z,41.33
2018-04-14T02:41:14.539Z,41.03
2018-04-14T02:44:24.111Z,39.57
2018-04-14T02:47:33.547Z,35.23
2018-04-14T02:50:42.998Z,40.57
2018-04-14T02:53:54.410Z,39.57
2018-04-14T02:57:04.126Z,35.57
2018-04-14T03:00:14.371Z,34.60
2018-04-14T03:03:24.264Z,35.00
2018-04-14T03:06:33.878Z,36.23
2018-04-14T03:09:43.794Z,35.90
2018-04-14T03:12:53.636Z,36.50
2018-04-14T03:16:03.823Z,35.87
2018-04-14T03:19:14.120Z,39.03
2018-04-14T03:22:23.923Z,34.13
2018-04-14T03:25:33.396Z,37.80
2018-04-14T03:28:43.436Z,34.47
2018-04-14T03:31:53.739Z,35.27
2018-04-14T03:35:04.027Z,36.77
2018-04-14T03:38:14.219Z,34.80
2018-04-14T03:41:24.463Z,36.20
2018-04-14T03:44:33.954Z,37.63
2018-04-14T03:47:44.295Z,35.63
2018-04-14T03:50:54.465Z,35.13
2018-04-14T03:54:04.616Z,36.90
2018-04-14T03:57:14.583Z,38.23
2018-04-14T04:00:24.806Z,36.90
2018-04-14T04:03:34.157Z,36.43
2018-04-14T04:06:43.497Z,37.00
2018-04-14T04:09:53.387Z,38.13
2018-04-14T04:13:04.456Z,37.73
2018-04-14T04:16:13.911Z,37.33
2018-04-14T04:19:41.567Z,36.33
2018-04-14T04:23:09.399Z,36.00
2018-04-14T04:26:19.660Z,36.10
2018-04-14T04:29:29.183Z,37.50
2018-04-14T04:32:39.441Z,34.17
2018-04-14T04:35:48.803Z,34.97
2018-04-14T04:38:59.030Z,34.23
2018-04-14T04:42:08.916Z,35.50
2018-04-14T04:45:19.008Z,37.27
2018-04-14T04:48:28.914Z,36.70
2018-04-14T04:51:38.309Z,40.37
2018-04-14T04:54:48.677Z,37.10
2018-04-14T04:57:59.212Z,38.17
2018-04-14T05:01:09.049Z,40.17
2018-04-14T05:04:19.303Z,33.80
2018-04-14T05:07:30.171Z,36.27
2018-04-14T05:10:40.473Z,33.30
2018-04-14T05:13:49.875Z,35.73
2018-04-14T05:16:59.731Z,33.80
2018-04-14T05:20:09.633Z,37.20
2018-04-14T05:23:19.863Z,36.90
2018-04-14T05:26:29.711Z,37.63
2018-04-14T05:29:39.171Z,38.30
2018-04-14T05:32:48.804Z,37.70
2018-04-14T05:35:59.659Z,34.83
2018-04-14T05:39:09.119Z,37.43
2018-04-14T05:42:20.420Z,29.57
2018-04-14T05:45:30.659Z,37.87
2018-04-14T05:48:40.088Z,34.37
2018-04-14T05:51:49.528Z,35.03
2018-04-14T05:54:58.940Z,34.73
2018-04-14T05:58:09.647Z,33.60
2018-04-14T06:01:19.975Z,34.33
2018-04-14T06:04:29.775Z,33.47
2018-04-14T06:07:39.377Z,34.40
2018-04-14T06:10:49.847Z,31.03
2018-04-14T06:13:59.940Z,34.13
2018-04-14T06:17:09.365Z,32.30
2018-04-14T06:20:19.685Z,34.00
2018-04-14T06:23:29.285Z,33.47
2018-04-14T06:26:39.024Z,31.70
2018-04-14T06:29:48.487Z,33.50
2018-04-14T06:32:58.000Z,34.73
2018-04-14T06:36:08.770Z,34.20
2018-04-14T06:39:18.824Z,33.57
2018-04-14T06:42:28.166Z,34.07
2018-04-14T06:45:41.234Z,33.63
2018-04-14T06:48:51.859Z,33.37
2018-04-14T06:52:02.063Z,32.83
2018-04-14T06:55:11.419Z,32.43
2018-04-14T06:58:21.672Z,30.73
2018-04-14T07:01:31.481Z,29.33
2018-04-14T07:04:44.834Z,31.70
2018-04-14T07:07:54.181Z,31.23
2018-04-14T07:11:08.005Z,31.60
2018-04-14T07:14:18.212Z,31.60
2018-04-14T07:17:33.140Z,31.83
2018-04-14T07:20:42.580Z,23.70
2018-04-14T07:23:52.187Z,31.40
2018-04-14T07:27:02.441Z,31.27
2018-04-14T07:30:11.948Z,30.67
2018-04-14T07:33:21.292Z,32.07
2018-04-14T07:36:31.905Z,31.00
2018-04-14T07:39:49.795Z,31.47
2018-04-14T07:42:59.716Z,32.53
2018-04-14T07:46:10.164Z,29.37
2018-04-14T07:49:20.944Z,29.63
2018-04-14T07:52:30.547Z,30.07
2018-04-14T07:55:41.034Z,31.03
2018-04-14T07:58:51.273Z,24.90
2018-04-14T08:02:00.876Z,27.97
2018-04-14T08:05:11.980Z,30.30
2018-04-14T08:08:21.358Z,32.70
2018-04-14T08:11:32.184Z,25.17
2018-04-14T08:14:41.639Z,28.53
2018-04-14T08:17:51.547Z,21.07
2018-04-14T08:21:00.907Z,30.40
2018-04-14T08:24:10.573Z,32.83
2018-04-14T08:27:20.032Z,32.00
2018-04-14T08:30:29.425Z,31.67
2018-04-14T08:33:39.145Z,31.67
2018-04-14T08:36:48.993Z,31.93
2018-04-14T08:39:58.436Z,33.80
2018-04-14T08:43:08.644Z,34.40
2018-04-14T08:46:18.139Z,33.17
2018-04-14T08:49:27.979Z,33.20
2018-04-14T08:52:37.751Z,34.57
2018-04-14T08:55:47.251Z,37.30
2018-04-14T08:59:00.588Z,30.37
2018-04-14T09:02:10.043Z,34.30
2018-04-14T09:05:19.900Z,32.63
2018-04-14T09:08:29.399Z,29.53
2018-04-14T09:11:38.978Z,29.87
2018-04-14T09:14:48.697Z,32.00
2018-04-14T09:17:58.884Z,30.67
2018-04-14T09:21:08.564Z,36.13
2018-04-14T09:24:17.975Z,34.20
2018-04-14T09:27:28.566Z,28.07
2018-04-14T09:30:39.044Z,33.37
2018-04-14T09:33:48.670Z,31.17
2018-04-14T09:36:58.782Z,30.90
2018-04-14T09:40:08.611Z,31.97
2018-04-14T09:43:18.356Z,31.17
2018-04-14T09:46:27.903Z,30.43
2018-04-14T09:49:37.709Z,31.33
2018-04-14T09:52:47.625Z,30.70
2018-04-14T09:55:59.160Z,29.73
2018-04-14T09:59:09.337Z,29.13
2018-04-14T10:02:19.604Z,26.57
2018-04-14T10:05:29.470Z,28.93
2018-04-14T10:08:39.688Z,26.40
2018-04-14T10:11:50.085Z,29.70
2018-04-14T10:14:59.609Z,29.70
2018-04-14T10:18:10.148Z,30.47
2018-04-14T10:21:19.513Z,28.87
2018-04-14T10:24:29.820Z,30.53
2018-04-14T10:27:40.052Z,30.00
2018-04-14T10:30:49.864Z,29.13
2018-04-14T10:34:00.107Z,33.30
2018-04-14T10:37:10.380Z,30.33
2018-04-14T10:40:23.833Z,31.87
2018-04-14T10:43:33.200Z,31.13
2018-04-14T10:46:42.824Z,32.37
2018-04-14T10:49:53.685Z,28.93
2018-04-14T10:53:03.145Z,30.33
2018-04-14T10:56:14.235Z,26.17
2018-04-14T10:59:23.676Z,29.97
2018-04-14T11:02:33.524Z,30.43
2018-04-14T11:05:42.951Z,33.13
2018-04-14T11:08:53.008Z,28.60
2018-04-14T11:12:06.505Z,29.80
2018-04-14T11:15:16.048Z,27.77
2018-04-14T11:18:26.540Z,29.43
2018-04-14T11:21:36.135Z,32.40
2018-04-14T11:24:45.476Z,29.50
2018-04-14T11:27:55.226Z,26.40
2018-04-14T11:31:05.647Z,29.07
2018-04-14T11:34:15.893Z,32.50
2018-04-14T11:37:25.465Z,35.03
2018-04-14T11:40:35.032Z,29.17
2018-04-14T11:43:45.684Z,30.60
2018-04-14T11:46:55.905Z,31.60
2018-04-14T11:50:05.958Z,29.00
2018-04-14T11:53:16.219Z,32.83
2018-04-14T11:56:26.697Z,33.13
2018-04-14T11:59:36.916Z,29.97
2018-04-14T12:02:46.395Z,31.20
2018-04-14T12:05:56.009Z,31.77
2018-04-14T12:09:06.341Z,29.97
2018-04-14T12:12:16.136Z,31.17
2018-04-14T12:15:25.579Z,26.53
2018-04-14T12:18:35.880Z,29.13
2018-04-14T12:21:45.275Z,30.27
2018-04-14T12:24:55.179Z,31.37
2018-04-14T12:28:04.824Z,32.93
2018-04-14T12:31:14.175Z,31.77
2018-04-14T12:34:24.419Z,33.27
2018-04-14T12:37:34.811Z,33.47
2018-04-14T12:40:44.947Z,33.00
2018-04-14T12:43:54.833Z,23.03
2018-04-14T12:47:05.112Z,32.47
2018-04-14T12:50:14.910Z,29.17
2018-04-14T12:53:24.714Z,32.87
2018-04-14T12:56:35.081Z,34.60
2018-04-14T12:59:45.344Z,30.67
2018-04-14T13:02:55.633Z,31.47
2018-04-14T13:06:05.959Z,34.27
2018-04-14T13:09:15.323Z,33.47
2018-04-14T13:12:24.763Z,31.07
2018-04-14T13:15:34.216Z,33.63
2018-04-14T13:18:44.416Z,31.13
2018-04-14T13:21:53.842Z,33.67
2018-04-14T13:25:03.492Z,33.53
2018-04-14T13:28:12.944Z,36.63
2018-04-14T13:31:22.367Z,34.20
2018-04-14T13:34:33.883Z,30.07
2018-04-14T13:37:44.133Z,33.73
2018-04-14T13:40:53.549Z,33.10
2018-04-14T13:44:03.535Z,33.90
2018-04-14T13:47:13.335Z,30.33
2018-04-14T13:50:23.519Z,32.30
2018-04-14T13:53:33.388Z,34.70
2018-04-14T13:56:42.796Z,32.50
2018-04-14T13:59:52.492Z,31.70
2018-04-14T14:03:02.539Z,31.20
2018-04-14T14:06:12.884Z,31.00
2018-04-14T14:09:23.015Z,34.00
2018-04-14T14:12:32.860Z,32.33
2018-04-14T14:15:42.771Z,30.57
2018-04-14T14:18:53.263Z,32.17
2018-04-14T14:22:03.571Z,32.30
2018-04-14T14:25:13.489Z,32.30
2018-04-14T14:28:23.363Z,33.67
2018-04-14T14:31:32.861Z,33.70
2018-04-14T14:34:43.205Z,32.07
2018-04-14T14:37:52.908Z,30.90
2018-04-14T14:41:02.729Z,30.83
2018-04-14T14:44:12.186Z,32.43
2018-04-14T14:47:22.467Z,31.80
2018-04-14T14:50:31.925Z,31.73
2018-04-14T14:53:41.784Z,29.17
2018-04-14T14:56:51.198Z,33.30
2018-04-14T15:00:01.429Z,32.70
2018-04-14T15:03:11.281Z,34.20
2018-04-14T15:06:20.774Z,33.10
2018-04-14T15:09:30.997Z,32.80
2018-04-14T15:12:41.227Z,33.03
2018-04-14T15:15:50.684Z,33.80
2018-04-14T15:19:00.379Z,30.90
2018-04-14T15:22:09.811Z,31.93
2018-04-14T15:25:20.088Z,32.97
2018-04-14T15:28:30.095Z,31.43
2018-04-14T15:31:39.949Z,33.90
2018-04-14T15:34:49.807Z,32.50
2018-04-14T15:37:59.239Z,32.40
2018-04-14T15:41:08.969Z,32.03
2018-04-14T15:44:18.743Z,31.37
2018-04-14T15:47:29.394Z,31.03
2018-04-14T15:50:39.782Z,31.48
2018-04-14T15:53:50.624Z,33.07
2018-04-14T15:57:00.787Z,32.10
2018-04-14T16:00:10.736Z,33.87
2018-04-14T16:03:21.552Z,34.90
2018-04-14T16:06:31.042Z,33.23
2018-04-14T16:09:40.856Z,33.28
2018-04-14T16:12:50.401Z,32.23
2018-04-14T16:16:01.072Z,32.50
2018-04-14T16:19:17.417Z,32.23
2018-04-14T16:22:28.523Z,32.37
2018-04-14T16:25:42.172Z,30.47
2018-04-14T16:28:52.297Z,31.47
2018-04-14T16:32:01.907Z,31.67
2018-04-14T16:35:11.800Z,31.83
2018-04-14T16:38:22.067Z,29.13
2018-04-14T16:41:31.950Z,31.13
2018-04-14T16:44:42.377Z,30.55
2018-04-14T16:47:52.626Z,30.43
2018-04-14T16:51:02.880Z,30.30
2018-04-14T16:54:12.436Z,31.40
2018-04-14T16:57:21.913Z,32.07
2018-04-14T17:00:32.181Z,31.07
2018-04-14T17:03:41.626Z,31.37
2018-04-14T17:06:51.858Z,30.10
2018-04-14T17:10:01.248Z,30.80
2018-04-14T17:13:10.957Z,29.63
2018-04-14T17:16:20.296Z,29.87
2018-04-14T17:19:30.033Z,30.60
2018-04-14T17:22:40.883Z,32.10
2018-04-14T17:25:50.400Z,31.37
2018-04-14T17:28:59.719Z,29.60
2018-04-14T17:32:09.799Z,30.87
2018-04-14T17:35:19.107Z,29.00
2018-04-14T17:38:28.964Z,30.30
2018-04-14T17:41:38.900Z,28.90
2018-04-14T17:44:48.360Z,29.27
2018-04-14T17:47:58.823Z,28.33
2018-04-14T17:51:08.913Z,29.77
2018-04-14T17:54:18.298Z,29.60
2018-04-14T17:57:28.149Z,26.40
2018-04-14T18:00:37.520Z,27.37
2018-04-14T18:03:47.240Z,29.13
2018-04-14T18:06:57.373Z,26.20
2018-04-14T18:10:06.772Z,27.90
2018-04-14T18:13:17.180Z,30.80
2018-04-14T18:16:26.385Z,29.27
2018-04-14T18:19:36.299Z,28.97
2018-04-14T18:22:46.328Z,28.80
2018-04-14T18:25:55.765Z,31.10
2018-04-14T18:29:05.137Z,29.30
2018-04-14T18:32:15.320Z,28.50
2018-04-14T18:35:24.677Z,27.43
2018-04-14T18:38:34.015Z,27.10
2018-04-14T18:41:43.331Z,26.60
2018-04-14T18:44:52.763Z,27.30
2018-04-14T18:48:02.615Z,27.47
2018-04-14T18:51:12.556Z,30.60
2018-04-14T18:54:21.991Z,28.10
2018-04-14T18:57:31.755Z,26.67
2018-04-14T19:00:41.101Z,25.37
2018-04-14T19:03:51.287Z,25.63
2018-04-14T19:07:00.662Z,26.87
2018-04-14T19:10:10.518Z,28.77
2018-04-14T19:13:19.796Z,26.90
2018-04-14T19:16:29.539Z,27.20
2018-04-14T19:19:39.704Z,28.87
2018-04-14T19:22:49.159Z,27.10
2018-04-14T19:25:58.615Z,28.17
2018-04-14T19:29:08.109Z,26.40
2018-04-14T19:32:18.206Z,27.53
2018-04-14T19:35:28.251Z,27.37
2018-04-14T19:38:37.572Z,25.37
2018-04-14T19:41:47.513Z,28.07
2018-04-14T19:44:57.208Z,27.93
2018-04-14T19:48:06.630Z,27.20
2018-04-14T19:51:20.024Z,27.97
2018-04-14T19:54:30.156Z,28.17
2018-04-14T19:57:39.456Z,27.20
2018-04-14T20:00:48.893Z,27.90
2018-04-14T20:03:58.382Z,28.93
2018-04-14T20:07:07.974Z,25.23
2018-04-14T20:10:17.249Z,27.80
2018-04-14T20:13:26.997Z,28.13
2018-04-14T20:16:36.800Z,29.97
2018-04-14T20:19:46.153Z,28.23
2018-04-14T20:22:56.485Z,29.73
2018-04-14T20:26:06.125Z,29.17
2018-04-14T20:29:16.360Z,27.83
2018-04-14T20:32:25.721Z,30.93
2018-04-14T20:35:35.163Z,28.47
2018-04-14T20:38:45.560Z,30.23
2018-04-14T20:41:55.277Z,27.53
2018-04-14T20:45:05.321Z,29.73
2018-04-14T20:48:14.627Z,28.20
2018-04-14T20:51:24.048Z,29.47
2018-04-14T20:54:34.383Z,30.13
2018-04-14T20:57:43.861Z,30.80
2018-04-14T21:00:53.214Z,27.80
2018-04-14T21:04:02.555Z,29.37
2018-04-14T21:07:11.989Z,30.17
2018-04-14T21:10:21.284Z,30.47
2018-04-14T21:13:31.686Z,28.53
2018-04-14T21:16:41.191Z,30.47
2018-04-14T21:19:51.472Z,32.13
2018-04-14T21:23:00.971Z,28.47
2018-04-14T21:26:11.116Z,32.20
2018-04-14T21:29:21.217Z,31.50
2018-04-14T21:32:31.609Z,29.07
2018-04-14T21:35:41.608Z,30.57
2018-04-14T21:38:51.044Z,31.53
2018-04-14T21:42:01.362Z,30.17
2018-04-14T21:45:10.788Z,30.30
2018-04-14T21:48:20.107Z,31.17
2018-04-14T21:51:30.198Z,30.87
2018-04-14T21:54:40.333Z,31.60
2018-04-14T21:57:49.635Z,30.93
2018-04-14T22:00:59.688Z,31.77
2018-04-14T22:04:09.946Z,31.20
2018-04-14T22:07:19.923Z,31.97
2018-04-14T22:10:29.675Z,32.20
2018-04-14T22:13:39.815Z,31.70
2018-04-14T22:16:49.312Z,32.13
2018-04-14T22:19:58.816Z,31.83
2018-04-14T22:23:08.121Z,29.40
2018-04-14T22:26:19.180Z,29.93
2018-04-14T22:29:28.747Z,29.23
2018-04-14T22:32:38.931Z,29.20
2018-04-14T22:35:48.348Z,36.37
2018-04-14T22:38:57.953Z,42.13
2018-04-14T22:42:08.002Z,31.60
2018-04-14T22:45:18.136Z,31.00
2018-04-14T22:48:27.608Z,31.20
2018-04-14T22:51:36.836Z,30.57
2018-04-14T22:54:46.664Z,31.40
2018-04-14T22:57:55.944Z,30.57
2018-04-14T23:01:05.372Z,30.87
2018-04-14T23:04:15.359Z,33.97
2018-04-14T23:07:24.651Z,34.57
2018-04-14T23:10:34.852Z,33.10
2018-04-14T23:13:44.984Z,34.57
2018-04-14T23:16:54.337Z,32.97
2018-04-14T23:20:03.631Z,32.33
2018-04-14T23:23:13.479Z,33.33
2018-04-14T23:26:23.360Z,33.27
2018-04-14T23:29:32.832Z,33.60
2018-04-14T23:32:42.187Z,34.40
2018-04-14T23:35:52.366Z,31.67
2018-04-14T23:39:02.496Z,32.20
2018-04-14T23:42:11.967Z,31.67
2018-04-14T23:45:21.852Z,32.43
2018-04-14T23:48:31.212Z,32.20
2018-04-14T23:51:40.473Z,31.60
2018-04-14T23:54:49.821Z,33.57
2018-04-14T23:57:59.237Z,28.97
